Las Vegas, Nevada (DRI) Weather observations

Data are for observation ending at time listed.
 Day   Time    Ave.   Ave.  Ave.  Vector   Max.   Stn.    Total    Solar   Ave.  
  of    of     Air    Rel.  Wind   Wind    Wind   Baro.  Precip.   Rad.    Soil  
Year   Day     Temp.  Hum.  Speed  Dir.    Gust   Pres.                    Temp. 
2016   (PST)    F      %     mph   deg.    mph     mb.     in.     W/m2     F   
------------------------------------------------------------------------------
 238   12:20   99.8    11    6.2   183     13.5   939.3    0.00    1012    94.1
 238   12:30  100.5    10    8.6   181     19.3   939.2    0.00    1044    94.3
 238   12:40  100.4    10    7.3   195     14.6   939.1    0.00    1003    94.4
 238   12:50  100.9    10    4.9   221     12.6   939.0    0.00     984    94.5
 238   13:00  100.8    10    7.6   197     17.8   938.8    0.00     982    94.7
 238   13:10   99.9    11    8.9   199     18.2   938.6    0.00     977    94.8
 238   13:20  100.1    11    7.6   194     16.8   938.5    0.00     947    94.9
 238   13:30  100.1    11    7.7   184     14.7   938.4    0.00     915    95.1
 238   13:40  100.0    10    8.7   190     22.9   938.2    0.00     890    95.3
 238   13:50  100.0    10    7.8   194     14.4   938.1    0.00     871    95.5
 238   14:00  100.6    10    6.7   185     18.8   938.0    0.00     848    95.6
 238   14:10  100.5    10    5.5   208     14.0   937.9    0.00     820    95.8
 238   14:20  101.0    10    5.8   202     19.6   937.8    0.00     797    96.0
 238   14:30  101.1    10    5.6   221     13.1   937.8    0.00     769    96.2
 238   14:40  101.0    10    5.3   214     11.8   937.7    0.00     740    96.4
 238   14:50  101.1    10    6.2   208     13.6   937.5    0.00     710    96.6
 238   15:00  100.1    10    6.5   200     16.4   937.5    0.00     679    96.8
 238   15:10  101.1    10    5.6   211     15.3   937.4    0.00     647    97.0
 238   15:20  100.3    10    6.3   201     17.7   937.4    0.00     614    97.2
 238   15:30  100.1    10    7.4   203     16.3   937.4    0.00     578    97.4
 238   15:40   99.9    10    6.1   213     17.7   937.3    0.00     546    97.6
 238   15:50  100.2    10    5.7   200     13.4   937.3    0.00     502    97.8
 238   16:00   99.8    10    7.6   198     16.0   937.2    0.00     466    98.0
 238   16:10   99.9    10    5.2   210     12.1   937.2    0.00     427    98.2
 238   16:20   99.3    10    7.4   202     14.6   937.2    0.00     386    98.3
 238   16:30   99.3    10    5.2   203     12.1   937.1    0.00     342    98.5
 238   16:40   99.6    10    6.1   206     15.1   937.1    0.00     307    98.7
 238   16:50   99.0    10    5.0   204     12.5   937.1    0.00     263    98.8
 238   17:00   99.1    10    5.4   203     13.7   937.1    0.00     223    98.9
 238   17:10   98.6    10    5.4   193     10.6   937.1    0.00     187    99.1
 238   17:20   98.4    10    4.4   197     12.9   937.1    0.00     152    99.2
 238   17:30   98.3    10    5.1   201      9.8   937.1    0.00     118    99.3
 238   17:40   97.8    10    4.0   204      8.3   937.1    0.00      85    99.5
 238   17:50   97.6    10    2.4   242      7.5   937.1    0.00      44    99.6
 238   18:00   97.2    10    3.5   215      7.2   937.2    0.00      23    99.7
 238   18:10   97.0    11    2.8   208      7.3   937.2    0.00      14    99.7
 238   18:20   96.6    11    2.8   203      8.3   937.2    0.00       6    99.8
 238   18:30   96.4    11    3.0   205      5.8   937.3    0.00       3    99.9
 238   18:40   96.3    11    2.9   216      8.0   937.4    0.00       2    99.9
 238   18:50   96.4    10    2.4   207      6.2   937.4    0.00       1    99.9
 238   19:00   96.2    11    1.5   224      6.1   937.5    0.00       0    100.0
 238   19:10   95.9    11    1.1   228      3.6   937.6    0.00       1    100.0
 238   19:20   95.4    11    0.6   218      3.4   937.7    0.00       0    100.0
 238   19:30   95.1    11    0.7   244      4.1   937.7    0.00       1    100.0
 238   19:40   94.4    12    0.3   208      2.3   937.9    0.00       1    100.0
 238   19:50   94.0    12    0.1   192      1.2   938.0    0.00       0    100.0
 238   20:00   93.0    13    0.1   193      0.9   938.0    0.00       1    99.9
 238   20:10   92.3    13    0.1   186      1.0   938.0    0.00       0    99.9
 238   20:20   92.2    13    0.3   165      2.1   938.1    0.00       1    99.8
 238   20:30   92.1    13    1.7   177      3.8   938.2    0.00       1    99.8
 238   20:40   92.0    13    1.0   177      3.1   938.3    0.00       1    99.8
 238   20:50   91.8    13    1.4   185      2.9   938.3    0.00       1    99.7
 238   21:00   91.8    13    1.6   179      3.4   938.4    0.00       2    99.6
 238   21:10   91.4    13    0.9   160      2.0   938.4    0.00       1    99.6
 238   21:20   90.8    13    1.5   184      4.1   938.4    0.00       2    99.5
 238   21:30   90.9    13    1.6   186      3.1   938.4    0.00       1    99.5
 238   21:40   90.7    13    1.5   189      2.9   938.4    0.00       1    99.4
 238   21:50   90.4    13    2.2   175      3.6   938.4    0.00       1    99.3
 238   22:00   90.8    14    3.6   186      8.6   938.4    0.00       1    99.3
 238   22:10   90.7    13    3.0   215      6.1   938.5    0.00       2    99.2
 238   22:20   90.6    12    3.6   208     10.9   938.5    0.00       2    99.1
 238   22:30   90.7    12    5.6   204     14.0   938.5    0.00       1    99.0
 238   22:40   90.4    12    5.1   205      8.5   938.5    0.00       1    98.9
 238   22:50   89.8    13    4.8   207      9.3   938.6    0.00       1    98.9
 238   23:00   89.7    13    4.6   211      8.1   938.7    0.00       2    98.8
 238   23:10   89.5    13    3.8   201      9.6   938.8    0.00       2    98.7
 238   23:20   89.2    13    3.6   194      9.1   938.9    0.00       2    98.6
 238   23:30   88.8    14    2.8   195      5.6   939.0    0.00       1    98.5
 238   23:40   88.3    14    1.6   142      4.5   939.2    0.00       2    98.4
 238   23:50   87.4    16    2.3    32      5.5   939.3    0.00       1    98.3
 239    0:00   86.1    21    2.9    43      5.9   939.3    0.00       2    98.3
 239    0:10   85.6    23    2.0    58      5.0   939.3    0.00       2    98.2
 239    0:20   85.4    24    1.7    48      3.9   939.5    0.00       1    98.1
 239    0:30   85.2    24    1.4    50      4.2   939.5    0.00       1    98.0
 239    0:40   85.2    24    2.1    38      5.3   939.4    0.00       1    97.9
 239    0:50   85.2    25    2.1    33      4.8   939.5    0.00       1    97.9
 239    1:00   84.8    25    2.1    44      5.0   939.4    0.00       1    97.8
 239    1:10   84.8    25    2.5    54      6.1   939.5    0.00       1    97.7
 239    1:20   84.5    25    2.2    54      5.0   939.6    0.00       2    97.6
 239    1:30   84.3    26    1.8    55      5.6   939.7    0.00       1    97.5
 239    1:40   84.3    26    1.8    54      6.0   939.8    0.00       0    97.4
 239    1:50   84.4    26    2.4    56      6.1   939.9    0.00       1    97.3
 239    2:00   84.1    26    2.1    53      6.4   939.9    0.00       2    97.2
 239    2:10   83.8    27    1.8    58      5.3   940.0    0.00       1    97.2
 239    2:20   83.7    27    1.4    57      3.9   940.1    0.00       1    97.1
 239    2:30   83.3    28    2.8    48      6.9   940.2    0.00       1    97.0
 239    2:40   82.8    28    2.9    40      6.6   940.3    0.00       1    96.9
 239    2:50   82.4    29    1.3    45      5.3   940.5    0.00       1    96.8
 239    3:00   82.2    30    1.0    30      5.8   940.6    0.00       1    96.7
 239    3:10   81.9    30    0.3     6      3.4   940.6    0.00       1    96.6
 239    3:20   81.5    31    0.0    32      1.0   940.7    0.00       1    96.5
 239    3:30   81.1    32    0.0    45      0.8   940.8    0.00       1    96.4
 239    3:40   80.8    32    0.0    46      0.6   940.8    0.00       2    96.4
 239    3:50   80.3    33    0.0     0      0.0   940.9    0.00       0    96.3
 239    4:00   79.4    35    0.0     0      0.0   940.9    0.00       1    96.2
 239    4:10   79.2    35    0.0     0      0.0   941.0    0.00       0    96.1
 239    4:20   79.7    34    0.0    32      0.2   941.1    0.00       1    96.0
 239    4:30   80.5    33    0.0     0      0.0   941.2    0.00       1    95.9
 239    4:40   80.4    33    0.1    24      2.2   941.3    0.00       0    95.8
 239    4:50   80.5    33    0.4    23      3.3   941.4    0.00       1    95.7
 239    5:00   80.6    33    0.6    18      2.3   941.5    0.00       2    95.6
 239    5:10   80.4    33    0.3   356      1.7   941.7    0.00       4    95.5
 239    5:20   80.1    34    0.2   351      2.0   941.9    0.00       6    95.4
 239    5:30   80.0    34    0.3   346      1.9   942.0    0.00      15    95.4
 239    5:40   80.1    34    0.0   359      1.8   942.0    0.00      21    95.3
 239    5:50   80.3    34    0.7    24      3.0   942.1    0.00      27    95.2
 239    6:00   80.5    34    0.5    16      3.1   942.2    0.00      32    95.1
 239    6:10   80.5    34    0.5    16      2.8   942.3    0.00      38    95.0
 239    6:20   80.9    34    0.7    28      3.1   942.4    0.00      39    94.9
 239    6:30   81.3    34    1.6    19      4.9   942.5    0.00      45    94.8
 239    6:40   81.7    33    1.6    16      5.3   942.6    0.00      46    94.7
 239    6:50   81.9    33    0.9    48      4.3   942.7    0.00      49    94.7
 239    7:00   82.1    32    1.3    56      4.3   942.8    0.00      53    94.6
 239    7:10   82.5    32    1.2    51      4.3   942.8    0.00      53    94.5
 239    7:20   82.8    32    1.0    50      4.0   942.9    0.00      53    94.4
 239    7:30   83.3    32    0.5    50      3.6   942.9    0.00      59    94.3
 239    7:40   83.2    32    0.5    54      3.1   942.9    0.00      60    94.2
 239    7:50   83.4    31    0.4    30      2.7   942.9    0.00      63    94.2
 239    8:00   83.7    31    0.1    53      1.5   942.9    0.00     119    94.1
 239    8:10   84.3    30    0.4    56      4.0   942.9    0.00     128    94.0
 239    8:20   84.5    30    0.7    39      4.7   943.0    0.00      93    94.0
 239    8:30   84.9    30    0.1    49      2.6   943.1    0.00     192    93.9
 239    8:40   85.3    29    1.0    30      3.7   943.1    0.00     301    93.8
 239    8:50   86.1    29    0.8    50      3.1   943.2    0.00     480    93.8
 239    9:00   86.3    29    0.7    65      2.8   943.1    0.00     705    93.7
 239    9:10   87.0    27    0.8     1      4.3   943.1    0.00     741    93.6
 239    9:20   87.2    27    1.6    31      5.3   943.0    0.00     768    93.5
 239    9:30   88.6    25    0.2   161      1.7   943.0    0.00     797    93.5
 239    9:40   90.2    24    0.5   147      4.5   943.0    0.00     823    93.5
 239    9:50   90.4    23    0.9   143      3.4   942.8    0.00     845    93.4
 239   10:00   90.8    23    0.7   239      3.4   942.8    0.00     863    93.3
 239   10:10   90.8    23    1.5   222      4.3   942.7    0.00     879    93.3
 239   10:20   91.1    22    1.7   177      5.0   942.6    0.00     898    93.2
 239   10:30   91.4    22    2.8   178      8.1   942.5    0.00     913    93.1
 239   10:40   91.8    20    1.5    74      8.0   942.4    0.00     929    93.1
 239   10:50   92.4    20    1.9   180      5.8   942.2    0.00     946    93.1
 239   11:00   93.4    19    1.6   149      6.4   942.1    0.00     900    93.1
 239   11:10   93.5    18    2.5   185      6.4   941.9    0.00     983    93.1
 239   11:20   94.4    17    1.6   174      6.1   941.7    0.00     994    93.1
 239   11:30   95.0    16    2.1    46      5.5   941.5    0.00    1009    93.1
 239   11:40   94.9    16    1.7    88      5.5   941.3    0.00    1039    93.2
 239   11:50   95.8    16    3.1   186      6.6   941.1    0.00    1065    93.3
 239   12:00   96.5    15    1.6    44      5.2   941.0    0.00     883    93.4
 239   12:10   94.9    16    2.6   194     10.1   940.9    0.00     692    93.6

Return to Las Vegas, Nevada graphs page.


Western Regional Climate Center,wrcc@dri.edu